^^
Saratoga-Weather Station Historical Data
Daily Summary for September 24, 2020 Units:  English    Metric   Both
Daily Weekly Monthly Yearly Custom
  High: Low: Average:
Temperature: 56.1 °F 50.4 °F 54.1 °F
Dew Point: 54.5 °F 48 °F 51.6 °F
Humidity: 95% 83% 91%
Wind Speed: 8mph 0mph 1.4mph
Wind Gust: 10mph - -
Wind- - WSW
Pressure: 30 in 30 in -
Precipitation: 0 in    
Historical Graphs
 
 
Tabular Data for September 24, 2020
Time Temperature Dew Point Pressure Wind Wind Speed Wind Gust Humidity Rainfall Rate (Hourly) solar
00:00 56.1 °F 54.5 °F 30 in West 2 mph 2 mph 94% 0 in 0 W/m2
00:05 55.8 °F 53.8 °F 30 in NNE 0.9 mph 2 mph 93% 0 in 0 W/m2
00:10 55.6 °F 54 °F 30 in Calm   4 mph 94% 0 in 0 W/m2
00:15 55.4 °F 53.8 °F 30 in Calm     94% 0 in 0 W/m2
00:20 55.2 °F 53.6 °F 30 in West 0.9 mph 3 mph 94% 0 in 0 W/m2
00:25 55 °F 53.4 °F 30 in West 2 mph 2 mph 94% 0 in 0 W/m2
00:30 55 °F 53.4 °F 30 in WNW 0.9 mph 2 mph 94% 0 in 0 W/m2
00:35 55 °F 53.6 °F 30 in WNW 0.9 mph 2 mph 95% 0 in 0 W/m2
00:40 55 °F 53.6 °F 30 in West 0.9 mph 1 mph 95% 0 in 0 W/m2
00:45 55 °F 53.6 °F 30 in West 6 mph 6 mph 95% 0 in 0 W/m2
00:50 55.2 °F 53.8 °F 30 in WNW 2 mph 3 mph 95% 0 in 0 W/m2
00:55 55.2 °F 53.6 °F 30 in WNW 2.9 mph 4 mph 94% 0 in 0 W/m2
01:00 55.2 °F 53.6 °F 30 in West 0.9 mph 4 mph 94% 0 in 0 W/m2
01:05 55.2 °F 53.6 °F 30 in West 2.9 mph 4 mph 94% 0 in 0 W/m2
01:10 55.2 °F 53.6 °F 30 in West 6 mph 6 mph 94% 0 in 0 W/m2
01:15 55 °F 53.4 °F 30 in West 2 mph 2 mph 94% 0 in 0 W/m2
01:20 55 °F 53.4 °F 30 in WSW 2 mph 4 mph 94% 0 in 0 W/m2
01:25 54.9 °F 53.2 °F 30 in Calm   2 mph 94% 0 in 0 W/m2
01:30 54.7 °F 53.1 °F 30 in Calm   1 mph 94% 0 in 0 W/m2
01:35 54.7 °F 53.1 °F 30 in Calm   2 mph 94% 0 in 0 W/m2
01:40 54.5 °F 52.9 °F 30 in WNW 2 mph 4 mph 94% 0 in 0 W/m2
01:45 54.3 °F 52.7 °F 30 in WSW 0.9 mph 2 mph 94% 0 in 0 W/m2
01:50 54.3 °F 52.7 °F 30 in Calm   1 mph 94% 0 in 0 W/m2
01:55 54.3 °F 52.7 °F 30 in Calm     94% 0 in 0 W/m2
02:00 54.3 °F 52.7 °F 30 in SSW 0.9 mph 4 mph 94% 0 in 0 W/m2
02:05 54.3 °F 52.9 °F 30 in Calm   2 mph 95% 0 in 0 W/m2
02:10 54.3 °F 52.7 °F 30 in Calm   4 mph 94% 0 in 0 W/m2
02:15 54.3 °F 52.9 °F 30 in Calm     95% 0 in 0 W/m2
02:20 54.3 °F 52.7 °F 30 in WNW 2.9 mph 6 mph 94% 0 in 0 W/m2
02:25 54.3 °F 52.9 °F 30 in North 0.9 mph 2 mph 95% 0 in 0 W/m2
02:30 54.5 °F 53.1 °F 30 in Calm   5 mph 95% 0 in 0 W/m2
02:35 54.5 °F 53.1 °F 30 in Calm   3 mph 95% 0 in 0 W/m2
02:40 54.5 °F 53.1 °F 30 in NNW 0.9 mph 4 mph 95% 0 in 0 W/m2
02:45 54.7 °F 53.1 °F 30 in Calm   3 mph 94% 0 in 0 W/m2
02:50 54.7 °F 53.1 °F 30 in WNW 2 mph 3 mph 94% 0 in 0 W/m2
02:55 54.7 °F 53.1 °F 30 in WNW 0.9 mph 3 mph 94% 0 in 0 W/m2
03:00 54.9 °F 53.2 °F 30 in Calm   3 mph 94% 0 in 0 W/m2
03:05 54.9 °F 53.2 °F 30 in NW 0.9 mph 5 mph 94% 0 in 0 W/m2
03:10 54.9 °F 53.2 °F 30 in North 0.9 mph 2 mph 94% 0 in 0 W/m2
03:15 55 °F 53.4 °F 30 in NE 0.9 mph 5 mph 94% 0 in 0 W/m2
03:20 55 °F 53.4 °F 30 in Calm   1 mph 94% 0 in 0 W/m2
03:26 55 °F 53.4 °F 30 in ESE 6 mph 6 mph 94% 0 in 0 W/m2
03:31 54.9 °F 53.2 °F 30 in WSW 2.9 mph 4 mph 94% 0 in 0 W/m2
03:36 54.9 °F 53.2 °F 30 in Calm   3 mph 94% 0 in 0 W/m2
03:41 54.9 °F 53.2 °F 30 in Calm   2 mph 94% 0 in 0 W/m2
03:46 54.9 °F 53.2 °F 30 in South 0.9 mph 6 mph 94% 0 in 0 W/m2
03:51 54.9 °F 53.2 °F 30 in Calm     94% 0 in 0 W/m2
03:56 54.9 °F 53.2 °F 30 in WNW 2.9 mph 7 mph 94% 0 in 0 W/m2
04:01 55 °F 53.4 °F 30 in Calm   2 mph 94% 0 in 0 W/m2
04:06 55 °F 53.4 °F 30 in Calm   3 mph 94% 0 in 0 W/m2
04:11 55.2 °F 53.2 °F 30 in Calm   2 mph 93% 0 in 0 W/m2
04:16 55.2 °F 53.2 °F 30 in Calm   1 mph 93% 0 in 0 W/m2
04:21 55.2 °F 53.2 °F 30 in West 0.9 mph 2 mph 93% 0 in 0 W/m2
04:26 55.2 °F 53.2 °F 30 in West 0.9 mph 3 mph 93% 0 in 0 W/m2
04:31 55.2 °F 53.2 °F 30 in WNW 4.9 mph 6 mph 93% 0 in 0 W/m2
04:36 55.2 °F 53.2 °F 30 in West 2.9 mph 4 mph 93% 0 in 0 W/m2
04:41 55.4 °F 53.4 °F 30 in WNW 2 mph 8 mph 93% 0 in 0 W/m2
04:46 55.4 °F 53.4 °F 30 in WNW 2.9 mph 6 mph 93% 0 in 0 W/m2
04:51 55.4 °F 53.1 °F 30 in WSW 0.9 mph 3 mph 92% 0 in 0 W/m2
04:56 55.2 °F 52.9 °F 30 in NNW 2 mph 3 mph 92% 0 in 0 W/m2
05:01 55.2 °F 52.9 °F 30 in Calm   3 mph 92% 0 in 0 W/m2
05:06 55 °F 52.7 °F 30 in West 2 mph 3 mph 92% 0 in 0 W/m2
05:11 54.9 °F 52.5 °F 30 in NNW 2.9 mph 4 mph 92% 0 in 0 W/m2
05:16 54.9 °F 52.5 °F 30 in West 2 mph 3 mph 92% 0 in 0 W/m2
05:21 54.7 °F 52.3 °F 30 in Calm   4 mph 92% 0 in 0 W/m2
05:26 54.7 °F 52.3 °F 30 in Calm   1 mph 92% 0 in 0 W/m2
05:31 54.3 °F 52.3 °F 30 in NW 2 mph 4 mph 93% 0 in 0 W/m2
05:36 54.1 °F 52.2 °F 30 in Calm   3 mph 93% 0 in 0 W/m2
05:41 54.1 °F 52.2 °F 30 in NW 2 mph 4 mph 93% 0 in 0 W/m2
05:46 54.1 °F 52.2 °F 30 in NW 2.9 mph 7 mph 93% 0 in 0 W/m2
05:51 54.1 °F 52.2 °F 30 in Calm   4 mph 93% 0 in 0 W/m2
05:56 54.3 °F 52.3 °F 30 in NNW 0.9 mph 6 mph 93% 0 in 0 W/m2
06:01 54.3 °F 52.3 °F 30 in NNW 0.9 mph 2 mph 93% 0 in 0 W/m2
06:06 54.3 °F 52.3 °F 30 in Calm   3 mph 93% 0 in 0 W/m2
06:11 54.5 °F 52.5 °F 30 in SW 4.9 mph 8 mph 93% 0 in 0 W/m2
06:16 54.7 °F 52.3 °F 30 in NNW 2 mph 3 mph 92% 0 in 0 W/m2
06:21 54.7 °F 52.3 °F 30 in NW 0.9 mph 8 mph 92% 0 in 0 W/m2
06:26 54.7 °F 52.3 °F 30 in NW 4.9 mph 8 mph 92% 0 in 0 W/m2
06:31 54.7 °F 52.3 °F 30 in NW 0.9 mph 3 mph 92% 0 in 0 W/m2
06:36 54.7 °F 52.2 °F 30 in West 8 mph 8 mph 91% 0 in 0 W/m2
06:41 54.7 °F 52.2 °F 30 in NW 0.9 mph 4 mph 91% 0 in 0 W/m2
06:46 54.7 °F 51.8 °F 30 in WNW 2 mph 3 mph 90% 0 in 0 W/m2
06:51 54.7 °F 51.4 °F 30 in WSW 2 mph 10 mph 89% 0 in 0 W/m2
06:56 54.5 °F 51.1 °F 30 in WNW 4 mph 8 mph 88% 0 in 0 W/m2
07:01 54.3 °F 50.9 °F 30 in West 0.9 mph 10 mph 88% 0 in 0 W/m2
07:06 54.1 °F 50.7 °F 30 in NW 4 mph 5 mph 88% 0 in 0 W/m2
07:11 54 °F 50.2 °F 30 in NW 2.9 mph 6 mph 87% 0 in 0 W/m2
07:17 54 °F 50.5 °F 30 in Calm   1 mph 88% 0 in 0 W/m2
07:22 53.8 °F 50.4 °F 30 in Calm   6 mph 88% 0 in 0 W/m2
07:27 53.4 °F 50 °F 30 in Calm   4 mph 88% 0 in 0 W/m2
07:32 53.2 °F 49.8 °F 30 in West 2 mph 3 mph 88% 0 in 0 W/m2
07:37 53.2 °F 49.8 °F 30 in NW 2 mph 4 mph 88% 0 in 0 W/m2
07:42 53.1 °F 49.6 °F 30 in Calm   4 mph 88% 0 in 0 W/m2
07:47 52.9 °F 49.5 °F 30 in WNW 0.9 mph 7 mph 88% 0 in 0 W/m2
07:52 52.7 °F 49.3 °F 30 in WNW 2 mph 4 mph 88% 0 in 0 W/m2
07:57 52.5 °F 49.1 °F 30 in NW 0.9 mph 7 mph 88% 0 in 0 W/m2
08:02 52.3 °F 48.9 °F 30 in NW 0.9 mph 3 mph 88% 0 in 0 W/m2
08:07 52.3 °F 48.9 °F 30 in Calm   4 mph 88% 0 in 0 W/m2
08:12 52.2 °F 48.7 °F 30 in NNE 0.9 mph 2 mph 88% 0 in 0 W/m2
08:17 52.2 °F 48.7 °F 30 in NW 0.9 mph 2 mph 88% 0 in 5 W/m2
08:22 52 °F 48.9 °F 30 in NNE 2 mph 2 mph 89% 0 in 5 W/m2
08:27 51.8 °F 48.7 °F 30 in Calm   2 mph 89% 0 in 7 W/m2
08:32 51.4 °F 48.4 °F 30 in Calm   2 mph 89% 0 in 11 W/m2
08:37 51.3 °F 48.4 °F 30 in Calm     90% 0 in 12 W/m2
08:42 51.1 °F 48.2 °F 30 in West 0.9 mph 2 mph 90% 0 in 16 W/m2
08:47 50.9 °F 48.4 °F 30 in Calm     91% 0 in 16 W/m2
08:52 50.7 °F 48.2 °F 30 in Calm   3 mph 91% 0 in 16 W/m2
08:57 50.5 °F 48 °F 30 in West 0.9 mph 2 mph 91% 0 in 16 W/m2
09:02 50.4 °F 48.2 °F 30 in Calm   3 mph 92% 0 in 23 W/m2
09:07 50.4 °F 48.2 °F 30 in Calm   1 mph 92% 0 in 26 W/m2
09:12 50.5 °F 48.4 °F 30 in Calm   4 mph 92% 0 in 33 W/m2
09:17 50.7 °F 48.6 °F 30 in Calm   1 mph 92% 0 in 28 W/m2
09:22 51.1 °F 48.9 °F 30 in NNW 2 mph 5 mph 92% 0 in 28 W/m2
09:27 51.3 °F 48.7 °F 30 in NE 0.9 mph 2 mph 91% 0 in 47 W/m2
09:32 51.4 °F 48.9 °F 30 in SE 0.9 mph 4 mph 91% 0 in 63 W/m2
09:37 51.8 °F 49.3 °F 30 in Calm   2 mph 91% 0 in 63 W/m2
09:42 52 °F 49.5 °F 30 in Calm   4 mph 91% 0 in 26 W/m2
09:47 52.2 °F 49.3 °F 30 in Calm   2 mph 90% 0 in 62 W/m2
09:52 52.3 °F 49.5 °F 30 in Calm   5 mph 90% 0 in 86 W/m2
09:57 52.5 °F 49.6 °F 30 in NNW 2 mph 3 mph 90% 0 in 105 W/m2
10:02 52.9 °F 50 °F 30 in North 2 mph 5 mph 90% 0 in 230 W/m2
10:07 53.2 °F 50 °F 30 in Calm   4 mph 89% 0 in 95 W/m2
10:12 53.6 °F 50.4 °F 30 in NW 2 mph 2 mph 89% 0 in 95 W/m2
10:17 53.8 °F 50.4 °F 30 in Calm   5 mph 88% 0 in 76 W/m2
10:22 54 °F 50.2 °F 30 in ENE 4.9 mph 8 mph 87% 0 in 67 W/m2
10:27 54.1 °F 50.4 °F 30 in North 2 mph 3 mph 87% 0 in 70 W/m2
10:32 54.1 °F 50 °F 30 in NE 0.9 mph 8 mph 86% 0 in 104 W/m2
10:37 54.3 °F 50.2 °F 30 in NE 2.9 mph 4 mph 86% 0 in 107 W/m2
10:42 54.3 °F 50.2 °F 30 in East 5 mph 5 mph 86% 0 in 102 W/m2
10:47 54.7 °F 50.2 °F 30 in ENE 0.9 mph 4 mph 85% 0 in 118 W/m2
10:52 54.7 °F 50.2 °F 30 in NW 2 mph 2 mph 85% 0 in 130 W/m2
10:57 54.9 °F 50.4 °F 30 in NE 2 mph 4 mph 85% 0 in 137 W/m2
11:02 55 °F 50.4 °F 30 in West 4 mph 4 mph 84% 0 in 153 W/m2
11:07 55 °F 50.4 °F 30 in NNE 0.9 mph 2 mph 84% 0 in 118 W/m2
11:12 55.2 °F 50.5 °F 30 in West 6 mph 6 mph 84% 0 in 128 W/m2
11:17 55.2 °F 50.5 °F 30 in NE 2.9 mph 4 mph 84% 0 in 105 W/m2
11:22 55.2 °F 50.2 °F 30 in Calm   5 mph 83% 0 in 114 W/m2
Juneau County Weather
Compliments of Weather Underground - 2 mb